sensor_id;sensor_type;location;lat;lon;timestamp;P1;durP1;ratioP1;P2;durP2;ratioP2
43664;SDS011;29263;48.172;11.484;2023-02-21T00:00:23;2.90;;;1.27;;
43664;SDS011;29263;48.172;11.484;2023-02-21T00:03:07;2.23;;;1.10;;
43664;SDS011;29263;48.172;11.484;2023-02-21T00:05:51;1.83;;;0.80;;
43664;SDS011;29263;48.172;11.484;2023-02-21T00:08:35;3.57;;;1.00;;
43664;SDS011;29263;48.172;11.484;2023-02-21T00:11:19;2.50;;;0.90;;
43664;SDS011;29263;48.172;11.484;2023-02-21T00:14:03;3.60;;;1.17;;
43664;SDS011;29263;48.172;11.484;2023-02-21T00:16:47;2.83;;;1.33;;
43664;SDS011;29263;48.172;11.484;2023-02-21T00:19:31;4.13;;;1.80;;
43664;SDS011;29263;48.172;11.484;2023-02-21T00:22:15;3.23;;;1.00;;
43664;SDS011;29263;48.172;11.484;2023-02-21T00:24:59;2.27;;;1.13;;
43664;SDS011;29263;48.172;11.484;2023-02-21T00:27:43;3.00;;;0.97;;
43664;SDS011;29263;48.172;11.484;2023-02-21T00:30:27;4.90;;;1.10;;
43664;SDS011;29263;48.172;11.484;2023-02-21T00:33:11;1.90;;;1.27;;
43664;SDS011;29263;48.172;11.484;2023-02-21T00:35:55;1.93;;;1.20;;
43664;SDS011;29263;48.172;11.484;2023-02-21T00:38:39;2.23;;;1.00;;
43664;SDS011;29263;48.172;11.484;2023-02-21T00:41:23;3.30;;;1.80;;
43664;SDS011;29263;48.172;11.484;2023-02-21T00:44:07;2.67;;;1.30;;
43664;SDS011;29263;48.172;11.484;2023-02-21T00:46:51;2.23;;;1.27;;
43664;SDS011;29263;48.172;11.484;2023-02-21T00:49:35;4.33;;;1.40;;
43664;SDS011;29263;48.172;11.484;2023-02-21T00:52:19;3.30;;;1.33;;
43664;SDS011;29263;48.172;11.484;2023-02-21T00:55:03;1.87;;;1.10;;
43664;SDS011;29263;48.172;11.484;2023-02-21T00:57:48;1.63;;;0.90;;
43664;SDS011;29263;48.172;11.484;2023-02-21T01:00:32;4.70;;;1.40;;
43664;SDS011;29263;48.172;11.484;2023-02-21T01:03:16;3.37;;;1.10;;
43664;SDS011;29263;48.172;11.484;2023-02-21T01:06:00;4.83;;;1.30;;
43664;SDS011;29263;48.172;11.484;2023-02-21T01:08:44;2.43;;;1.30;;
43664;SDS011;29263;48.172;11.484;2023-02-21T01:11:29;3.37;;;1.37;;
43664;SDS011;29263;48.172;11.484;2023-02-21T01:14:14;3.20;;;1.40;;
43664;SDS011;29263;48.172;11.484;2023-02-21T01:16:59;2.90;;;1.00;;
43664;SDS011;29263;48.172;11.484;2023-02-21T01:19:43;2.17;;;1.20;;
43664;SDS011;29263;48.172;11.484;2023-02-21T01:22:28;3.80;;;1.17;;
43664;SDS011;29263;48.172;11.484;2023-02-21T01:25:12;1.83;;;1.17;;
43664;SDS011;29263;48.172;11.484;2023-02-21T01:27:56;2.83;;;1.10;;
43664;SDS011;29263;48.172;11.484;2023-02-21T01:30:40;3.43;;;1.30;;
43664;SDS011;29263;48.172;11.484;2023-02-21T01:33:24;2.20;;;1.60;;
43664;SDS011;29263;48.172;11.484;2023-02-21T01:36:08;2.40;;;1.27;;
43664;SDS011;29263;48.172;11.484;2023-02-21T01:38:53;3.73;;;1.00;;
43664;SDS011;29263;48.172;11.484;2023-02-21T01:41:37;3.53;;;1.33;;
43664;SDS011;29263;48.172;11.484;2023-02-21T01:47:22;2.03;;;1.23;;
43664;SDS011;29263;48.172;11.484;2023-02-21T01:50:09;3.73;;;1.30;;
43664;SDS011;29263;48.172;11.484;2023-02-21T01:53:13;8.07;;;1.97;;
43664;SDS011;29263;48.172;11.484;2023-02-21T01:56:02;3.90;;;1.33;;
43664;SDS011;29263;48.172;11.484;2023-02-21T01:58:48;3.30;;;1.33;;
43664;SDS011;29263;48.172;11.484;2023-02-21T02:01:55;2.83;;;1.30;;
43664;SDS011;29263;48.172;11.484;2023-02-21T02:04:45;4.00;;;1.40;;
43664;SDS011;29263;48.172;11.484;2023-02-21T02:07:30;3.97;;;1.57;;
43664;SDS011;29263;48.172;11.484;2023-02-21T02:10:15;2.30;;;1.60;;
43664;SDS011;29263;48.172;11.484;2023-02-21T02:16:13;4.30;;;1.50;;
43664;SDS011;29263;48.172;11.484;2023-02-21T02:18:59;4.10;;;1.50;;
43664;SDS011;29263;48.172;11.484;2023-02-21T02:26:56;2.10;;;1.20;;
43664;SDS011;29263;48.172;11.484;2023-02-21T02:35:08;4.20;;;1.33;;
43664;SDS011;29263;48.172;11.484;2023-02-21T02:43:33;3.47;;;1.73;;
43664;SDS011;29263;48.172;11.484;2023-02-21T02:46:19;2.37;;;1.30;;
43664;SDS011;29263;48.172;11.484;2023-02-21T02:49:11;4.87;;;1.30;;
43664;SDS011;29263;48.172;11.484;2023-02-21T02:51:42;3.00;;;1.20;;
43664;SDS011;29263;48.172;11.484;2023-02-21T02:54:08;3.57;;;1.53;;
43664;SDS011;29263;48.172;11.484;2023-02-21T02:56:33;3.10;;;1.30;;
43664;SDS011;29263;48.172;11.484;2023-02-21T02:59:05;1.90;;;1.53;;
43664;SDS011;29263;48.172;11.484;2023-02-21T03:12:37;4.20;;;1.30;;
43664;SDS011;29263;48.172;11.484;2023-02-21T03:17:41;6.63;;;1.20;;
43664;SDS011;29263;48.172;11.484;2023-02-21T03:20:10;2.60;;;1.73;;
43664;SDS011;29263;48.172;11.484;2023-02-21T03:22:38;3.00;;;1.80;;
43664;SDS011;29263;48.172;11.484;2023-02-21T03:25:06;1.70;;;1.10;;
43664;SDS011;29263;48.172;11.484;2023-02-21T03:27:32;3.43;;;1.27;;
43664;SDS011;29263;48.172;11.484;2023-02-21T03:30:02;3.87;;;1.40;;
43664;SDS011;29263;48.172;11.484;2023-02-21T03:32:31;4.93;;;1.20;;
43664;SDS011;29263;48.172;11.484;2023-02-21T03:35:01;5.77;;;1.67;;
43664;SDS011;29263;48.172;11.484;2023-02-21T03:37:31;5.00;;;1.67;;
43664;SDS011;29263;48.172;11.484;2023-02-21T03:40:00;2.07;;;1.57;;
43664;SDS011;29263;48.172;11.484;2023-02-21T03:42:27;2.03;;;1.33;;
43664;SDS011;29263;48.172;11.484;2023-02-21T03:44:56;3.30;;;1.83;;
43664;SDS011;29263;48.172;11.484;2023-02-21T03:47:21;4.63;;;1.30;;
43664;SDS011;29263;48.172;11.484;2023-02-21T03:49:47;3.40;;;1.50;;
43664;SDS011;29263;48.172;11.484;2023-02-21T03:52:13;3.03;;;1.77;;
43664;SDS011;29263;48.172;11.484;2023-02-21T03:54:39;4.60;;;1.40;;
43664;SDS011;29263;48.172;11.484;2023-02-21T03:57:05;2.70;;;1.60;;
43664;SDS011;29263;48.172;11.484;2023-02-21T03:59:30;2.00;;;1.73;;
43664;SDS011;29263;48.172;11.484;2023-02-21T04:01:56;4.90;;;1.90;;
43664;SDS011;29263;48.172;11.484;2023-02-21T04:04:22;3.57;;;1.53;;
43664;SDS011;29263;48.172;11.484;2023-02-21T04:06:47;1.67;;;1.17;;
43664;SDS011;29263;48.172;11.484;2023-02-21T04:09:13;3.97;;;1.43;;
43664;SDS011;29263;48.172;11.484;2023-02-21T04:11:42;4.03;;;1.60;;
43664;SDS011;29263;48.172;11.484;2023-02-21T04:16:34;1.97;;;1.30;;
43664;SDS011;29263;48.172;11.484;2023-02-21T04:19:00;2.87;;;1.50;;
43664;SDS011;29263;48.172;11.484;2023-02-21T04:21:26;2.20;;;1.27;;
43664;SDS011;29263;48.172;11.484;2023-02-21T04:23:51;3.57;;;1.60;;
43664;SDS011;29263;48.172;11.484;2023-02-21T04:26:17;2.70;;;1.60;;
43664;SDS011;29263;48.172;11.484;2023-02-21T04:28:43;2.83;;;1.43;;
43664;SDS011;29263;48.172;11.484;2023-02-21T04:31:08;1.87;;;1.50;;
43664;SDS011;29263;48.172;11.484;2023-02-21T04:33:34;4.43;;;1.27;;
43664;SDS011;29263;48.172;11.484;2023-02-21T04:36:00;4.63;;;1.37;;
43664;SDS011;29263;48.172;11.484;2023-02-21T04:38:26;5.13;;;1.40;;
43664;SDS011;29263;48.172;11.484;2023-02-21T04:40:52;2.47;;;1.33;;
43664;SDS011;29263;48.172;11.484;2023-02-21T04:43:17;3.77;;;1.70;;
43664;SDS011;29263;48.172;11.484;2023-02-21T04:45:45;6.53;;;1.90;;
43664;SDS011;29263;48.172;11.484;2023-02-21T04:48:10;3.30;;;1.40;;
43664;SDS011;29263;48.172;11.484;2023-02-21T04:50:36;4.00;;;1.50;;
43664;SDS011;29263;48.172;11.484;2023-02-21T04:53:01;3.97;;;1.80;;
43664;SDS011;29263;48.172;11.484;2023-02-21T04:55:27;1.60;;;1.20;;
43664;SDS011;29263;48.172;11.484;2023-02-21T04:57:53;2.63;;;1.80;;
43664;SDS011;29263;48.172;11.484;2023-02-21T05:00:18;3.23;;;1.80;;
43664;SDS011;29263;48.172;11.484;2023-02-21T05:02:44;2.30;;;1.60;;
43664;SDS011;29263;48.172;11.484;2023-02-21T05:05:13;3.65;;;1.67;;
43664;SDS011;29263;48.172;11.484;2023-02-21T05:07:42;1.87;;;1.40;;
43664;SDS011;29263;48.172;11.484;2023-02-21T05:10:08;3.95;;;1.48;;
43664;SDS011;29263;48.172;11.484;2023-02-21T05:12:35;2.33;;;1.47;;
43664;SDS011;29263;48.172;11.484;2023-02-21T05:15:03;2.47;;;1.43;;
43664;SDS011;29263;48.172;11.484;2023-02-21T05:17:30;1.60;;;1.40;;
43664;SDS011;29263;48.172;11.484;2023-02-21T05:19:55;2.70;;;1.40;;
43664;SDS011;29263;48.172;11.484;2023-02-21T05:22:21;4.53;;;1.67;;
43664;SDS011;29263;48.172;11.484;2023-02-21T05:24:47;5.33;;;1.83;;
43664;SDS011;29263;48.172;11.484;2023-02-21T05:27:14;4.37;;;1.80;;
43664;SDS011;29263;48.172;11.484;2023-02-21T05:29:41;2.83;;;1.73;;
43664;SDS011;29263;48.172;11.484;2023-02-21T05:32:10;3.75;;;1.80;;
43664;SDS011;29263;48.172;11.484;2023-02-21T05:34:35;2.53;;;1.93;;
43664;SDS011;29263;48.172;11.484;2023-02-21T05:37:01;4.23;;;1.80;;
43664;SDS011;29263;48.172;11.484;2023-02-21T05:39:27;2.90;;;1.50;;
43664;SDS011;29263;48.172;11.484;2023-02-21T05:41:52;2.33;;;1.80;;
43664;SDS011;29263;48.172;11.484;2023-02-21T05:44:18;3.90;;;1.70;;
43664;SDS011;29263;48.172;11.484;2023-02-21T05:46:43;3.63;;;1.60;;
43664;SDS011;29263;48.172;11.484;2023-02-21T05:49:10;5.13;;;2.43;;
43664;SDS011;29263;48.172;11.484;2023-02-21T05:51:40;2.37;;;1.50;;
43664;SDS011;29263;48.172;11.484;2023-02-21T05:54:08;2.63;;;1.70;;
43664;SDS011;29263;48.172;11.484;2023-02-21T05:56:39;2.60;;;1.53;;
43664;SDS011;29263;48.172;11.484;2023-02-21T05:59:06;3.90;;;1.77;;
43664;SDS011;29263;48.172;11.484;2023-02-21T06:01:34;2.70;;;1.60;;
43664;SDS011;29263;48.172;11.484;2023-02-21T06:03:59;4.57;;;1.77;;
43664;SDS011;29263;48.172;11.484;2023-02-21T06:06:25;2.30;;;1.50;;
43664;SDS011;29263;48.172;11.484;2023-02-21T06:08:51;3.17;;;1.97;;
43664;SDS011;29263;48.172;11.484;2023-02-21T06:11:24;4.77;;;1.50;;
43664;SDS011;29263;48.172;11.484;2023-02-21T06:13:56;3.20;;;1.75;;
43664;SDS011;29263;48.172;11.484;2023-02-21T06:16:22;3.50;;;1.80;;
43664;SDS011;29263;48.172;11.484;2023-02-21T06:18:53;5.07;;;1.57;;
43664;SDS011;29263;48.172;11.484;2023-02-21T06:21:19;2.67;;;1.50;;
43664;SDS011;29263;48.172;11.484;2023-02-21T06:23:45;4.80;;;1.70;;
43664;SDS011;29263;48.172;11.484;2023-02-21T06:26:12;2.60;;;1.60;;
43664;SDS011;29263;48.172;11.484;2023-02-21T06:28:38;5.17;;;1.60;;
43664;SDS011;29263;48.172;11.484;2023-02-21T06:31:04;2.77;;;1.40;;
43664;SDS011;29263;48.172;11.484;2023-02-21T06:33:30;3.33;;;1.70;;
43664;SDS011;29263;48.172;11.484;2023-02-21T06:35:56;4.00;;;1.90;;
43664;SDS011;29263;48.172;11.484;2023-02-21T06:38:25;8.60;;;2.10;;
43664;SDS011;29263;48.172;11.484;2023-02-21T06:40:50;1.83;;;1.30;;
43664;SDS011;29263;48.172;11.484;2023-02-21T06:43:16;2.43;;;1.40;;
43664;SDS011;29263;48.172;11.484;2023-02-21T06:45:41;3.13;;;1.10;;
43664;SDS011;29263;48.172;11.484;2023-02-21T06:48:13;2.87;;;1.80;;
43664;SDS011;29263;48.172;11.484;2023-02-21T06:50:40;3.97;;;1.67;;
43664;SDS011;29263;48.172;11.484;2023-02-21T06:53:05;3.57;;;1.73;;
43664;SDS011;29263;48.172;11.484;2023-02-21T06:55:31;4.07;;;1.90;;
43664;SDS011;29263;48.172;11.484;2023-02-21T06:57:57;5.17;;;1.30;;
43664;SDS011;29263;48.172;11.484;2023-02-21T07:00:22;3.17;;;1.70;;
43664;SDS011;29263;48.172;11.484;2023-02-21T07:02:50;3.70;;;1.60;;
43664;SDS011;29263;48.172;11.484;2023-02-21T07:05:16;8.13;;;2.03;;
43664;SDS011;29263;48.172;11.484;2023-02-21T07:07:42;3.70;;;1.60;;
43664;SDS011;29263;48.172;11.484;2023-02-21T07:10:08;2.07;;;1.40;;
43664;SDS011;29263;48.172;11.484;2023-02-21T07:12:34;3.43;;;1.70;;
43664;SDS011;29263;48.172;11.484;2023-02-21T07:14:59;2.93;;;1.43;;
43664;SDS011;29263;48.172;11.484;2023-02-21T07:17:25;4.60;;;1.70;;
43664;SDS011;29263;48.172;11.484;2023-02-21T07:19:51;4.67;;;1.97;;
43664;SDS011;29263;48.172;11.484;2023-02-21T07:22:16;3.33;;;1.97;;
43664;SDS011;29263;48.172;11.484;2023-02-21T07:24:43;5.83;;;2.03;;
43664;SDS011;29263;48.172;11.484;2023-02-21T07:27:09;5.70;;;1.60;;
43664;SDS011;29263;48.172;11.484;2023-02-21T07:29:34;5.13;;;1.90;;
43664;SDS011;29263;48.172;11.484;2023-02-21T07:32:00;6.30;;;1.90;;
43664;SDS011;29263;48.172;11.484;2023-02-21T07:34:26;3.60;;;1.80;;
43664;SDS011;29263;48.172;11.484;2023-02-21T07:36:51;6.30;;;1.60;;
43664;SDS011;29263;48.172;11.484;2023-02-21T07:39:17;3.83;;;1.70;;
43664;SDS011;29263;48.172;11.484;2023-02-21T07:41:43;5.03;;;1.80;;
43664;SDS011;29263;48.172;11.484;2023-02-21T07:44:09;5.90;;;1.57;;
43664;SDS011;29263;48.172;11.484;2023-02-21T07:46:34;5.53;;;1.60;;
43664;SDS011;29263;48.172;11.484;2023-02-21T07:49:00;2.87;;;1.50;;
43664;SDS011;29263;48.172;11.484;2023-02-21T07:51:26;2.60;;;1.53;;
43664;SDS011;29263;48.172;11.484;2023-02-21T07:53:53;4.90;;;1.90;;
43664;SDS011;29263;48.172;11.484;2023-02-21T07:56:19;7.50;;;1.57;;
43664;SDS011;29263;48.172;11.484;2023-02-21T07:58:45;6.27;;;1.80;;
43664;SDS011;29263;48.172;11.484;2023-02-21T08:01:10;3.73;;;1.70;;
43664;SDS011;29263;48.172;11.484;2023-02-21T08:03:37;4.13;;;1.70;;
43664;SDS011;29263;48.172;11.484;2023-02-21T08:06:04;3.97;;;1.60;;
43664;SDS011;29263;48.172;11.484;2023-02-21T08:08:32;3.67;;;1.40;;
43664;SDS011;29263;48.172;11.484;2023-02-21T08:10:58;3.17;;;1.70;;
43664;SDS011;29263;48.172;11.484;2023-02-21T08:13:23;6.37;;;1.70;;
43664;SDS011;29263;48.172;11.484;2023-02-21T08:15:49;3.97;;;1.90;;
43664;SDS011;29263;48.172;11.484;2023-02-21T08:18:23;2.07;;;1.40;;
43664;SDS011;29263;48.172;11.484;2023-02-21T08:20:52;6.10;;;1.80;;
43664;SDS011;29263;48.172;11.484;2023-02-21T08:23:19;2.07;;;1.40;;
43664;SDS011;29263;48.172;11.484;2023-02-21T08:25:46;5.50;;;1.60;;
43664;SDS011;29263;48.172;11.484;2023-02-21T08:28:12;4.07;;;1.90;;
43664;SDS011;29263;48.172;11.484;2023-02-21T08:30:38;3.63;;;1.60;;
43664;SDS011;29263;48.172;11.484;2023-02-21T08:33:04;2.93;;;1.47;;
43664;SDS011;29263;48.172;11.484;2023-02-21T08:35:29;5.77;;;1.73;;
43664;SDS011;29263;48.172;11.484;2023-02-21T08:37:55;6.30;;;1.47;;
43664;SDS011;29263;48.172;11.484;2023-02-21T08:40:22;3.80;;;1.57;;
43664;SDS011;29263;48.172;11.484;2023-02-21T08:42:49;8.27;;;1.60;;
43664;SDS011;29263;48.172;11.484;2023-02-21T08:45:16;2.83;;;1.47;;
43664;SDS011;29263;48.172;11.484;2023-02-21T08:47:44;4.40;;;1.40;;
43664;SDS011;29263;48.172;11.484;2023-02-21T08:50:10;2.57;;;1.50;;
43664;SDS011;29263;48.172;11.484;2023-02-21T08:52:35;5.50;;;1.70;;
43664;SDS011;29263;48.172;11.484;2023-02-21T08:55:01;3.50;;;1.60;;
43664;SDS011;29263;48.172;11.484;2023-02-21T08:57:27;3.57;;;1.20;;
43664;SDS011;29263;48.172;11.484;2023-02-21T08:59:53;3.80;;;1.30;;
43664;SDS011;29263;48.172;11.484;2023-02-21T09:02:22;3.20;;;1.10;;
43664;SDS011;29263;48.172;11.484;2023-02-21T09:04:56;1.60;;;0.93;;
43664;SDS011;29263;48.172;11.484;2023-02-21T09:07:23;2.83;;;1.97;;
43664;SDS011;29263;48.172;11.484;2023-02-21T09:09:49;1.43;;;0.90;;
43664;SDS011;29263;48.172;11.484;2023-02-21T09:12:15;3.73;;;1.30;;
43664;SDS011;29263;48.172;11.484;2023-02-21T09:14:42;4.57;;;1.30;;
43664;SDS011;29263;48.172;11.484;2023-02-21T09:17:11;5.47;;;1.10;;
43664;SDS011;29263;48.172;11.484;2023-02-21T09:19:37;3.28;;;1.10;;
43664;SDS011;29263;48.172;11.484;2023-02-21T09:22:05;3.70;;;1.37;;
43664;SDS011;29263;48.172;11.484;2023-02-21T09:24:32;4.83;;;1.30;;
43664;SDS011;29263;48.172;11.484;2023-02-21T09:26:58;2.50;;;1.30;;
43664;SDS011;29263;48.172;11.484;2023-02-21T09:29:26;2.90;;;1.23;;
43664;SDS011;29263;48.172;11.484;2023-02-21T09:31:53;1.52;;;1.00;;
43664;SDS011;29263;48.172;11.484;2023-02-21T09:34:18;3.43;;;1.23;;
43664;SDS011;29263;48.172;11.484;2023-02-21T09:36:44;3.40;;;1.00;;
43664;SDS011;29263;48.172;11.484;2023-02-21T09:39:11;5.97;;;1.60;;
43664;SDS011;29263;48.172;11.484;2023-02-21T09:41:37;3.10;;;1.20;;
43664;SDS011;29263;48.172;11.484;2023-02-21T09:44:08;1.87;;;0.90;;
43664;SDS011;29263;48.172;11.484;2023-02-21T09:46:43;3.27;;;1.10;;
43664;SDS011;29263;48.172;11.484;2023-02-21T09:49:12;3.90;;;1.07;;
43664;SDS011;29263;48.172;11.484;2023-02-21T09:51:46;1.38;;;0.80;;
43664;SDS011;29263;48.172;11.484;2023-02-21T09:54:34;2.30;;;1.15;;
43664;SDS011;29263;48.172;11.484;2023-02-21T09:57:04;2.67;;;1.10;;
43664;SDS011;29263;48.172;11.484;2023-02-21T09:59:31;2.22;;;0.80;;
43664;SDS011;29263;48.172;11.484;2023-02-21T10:07:21;1.40;;;0.80;;
43664;SDS011;29263;48.172;11.484;2023-02-21T10:12:31;1.83;;;0.73;;
43664;SDS011;29263;48.172;11.484;2023-02-21T10:17:51;1.98;;;1.55;;
43664;SDS011;29263;48.172;11.484;2023-02-21T10:23:28;1.63;;;0.60;;
43664;SDS011;29263;48.172;11.484;2023-02-21T10:26:00;1.25;;;0.80;;
43664;SDS011;29263;48.172;11.484;2023-02-21T10:28:39;1.35;;;0.60;;
43664;SDS011;29263;48.172;11.484;2023-02-21T10:31:10;1.65;;;0.90;;
43664;SDS011;29263;48.172;11.484;2023-02-21T10:33:43;2.15;;;0.90;;
43664;SDS011;29263;48.172;11.484;2023-02-21T10:36:12;6.35;;;1.10;;
43664;SDS011;29263;48.172;11.484;2023-02-21T10:38:42;1.55;;;0.85;;
43664;SDS011;29263;48.172;11.484;2023-02-21T10:41:28;3.65;;;0.90;;
43664;SDS011;29263;48.172;11.484;2023-02-21T10:43:59;1.67;;;0.73;;
43664;SDS011;29263;48.172;11.484;2023-02-21T10:46:32;4.38;;;1.13;;
43664;SDS011;29263;48.172;11.484;2023-02-21T10:51:46;2.08;;;0.80;;
43664;SDS011;29263;48.172;11.484;2023-02-21T10:54:26;2.17;;;1.15;;
43664;SDS011;29263;48.172;11.484;2023-02-21T10:56:52;2.88;;;1.27;;
43664;SDS011;29263;48.172;11.484;2023-02-21T10:59:28;4.35;;;0.80;;
43664;SDS011;29263;48.172;11.484;2023-02-21T11:01:56;1.13;;;0.68;;
43664;SDS011;29263;48.172;11.484;2023-02-21T11:04:24;3.67;;;0.60;;
43664;SDS011;29263;48.172;11.484;2023-02-21T11:06:57;0.65;;;0.52;;
43664;SDS011;29263;48.172;11.484;2023-02-21T11:09:33;2.92;;;0.90;;
43664;SDS011;29263;48.172;11.484;2023-02-21T11:12:18;1.70;;;0.55;;
43664;SDS011;29263;48.172;11.484;2023-02-21T11:22:18;1.52;;;0.50;;
43664;SDS011;29263;48.172;11.484;2023-02-21T11:27:15;1.67;;;0.50;;
43664;SDS011;29263;48.172;11.484;2023-02-21T11:29:41;1.23;;;0.40;;
43664;SDS011;29263;48.172;11.484;2023-02-21T11:32:10;3.85;;;0.70;;
43664;SDS011;29263;48.172;11.484;2023-02-21T11:34:43;0.80;;;0.55;;
43664;SDS011;29263;48.172;11.484;2023-02-21T11:37:13;2.40;;;0.50;;
43664;SDS011;29263;48.172;11.484;2023-02-21T11:39:39;1.27;;;0.50;;
43664;SDS011;29263;48.172;11.484;2023-02-21T11:45:19;0.63;;;0.57;;
43664;SDS011;29263;48.172;11.484;2023-02-21T11:47:59;1.33;;;0.63;;
43664;SDS011;29263;48.172;11.484;2023-02-21T11:50:35;2.42;;;0.57;;
43664;SDS011;29263;48.172;11.484;2023-02-21T11:55:36;3.58;;;0.63;;
43664;SDS011;29263;48.172;11.484;2023-02-21T12:01:08;2.30;;;0.60;;
43664;SDS011;29263;48.172;11.484;2023-02-21T12:11:43;2.67;;;0.70;;
43664;SDS011;29263;48.172;11.484;2023-02-21T12:20:24;1.30;;;0.50;;
43664;SDS011;29263;48.172;11.484;2023-02-21T12:39:08;2.33;;;1.83;;
43664;SDS011;29263;48.172;11.484;2023-02-21T12:41:59;1.38;;;0.90;;
43664;SDS011;29263;48.172;11.484;2023-02-21T12:47:11;1.23;;;0.70;;
43664;SDS011;29263;48.172;11.484;2023-02-21T12:55:29;1.38;;;0.60;;
43664;SDS011;29263;48.172;11.484;2023-02-21T13:03:50;1.73;;;0.70;;
43664;SDS011;29263;48.172;11.484;2023-02-21T13:06:49;2.80;;;0.70;;
43664;SDS011;29263;48.172;11.484;2023-02-21T13:12:41;1.95;;;0.73;;
43664;SDS011;29263;48.172;11.484;2023-02-21T13:15:21;1.38;;;0.68;;
43664;SDS011;29263;48.172;11.484;2023-02-21T13:20:24;3.03;;;0.70;;
43664;SDS011;29263;48.172;11.484;2023-02-21T13:29:42;2.00;;;0.80;;
43664;SDS011;29263;48.172;11.484;2023-02-21T13:32:13;2.00;;;0.57;;
43664;SDS011;29263;48.172;11.484;2023-02-21T13:34:47;1.08;;;0.60;;
43664;SDS011;29263;48.172;11.484;2023-02-21T13:37:25;0.70;;;0.40;;
43664;SDS011;29263;48.172;11.484;2023-02-21T13:40:15;1.83;;;0.68;;
43664;SDS011;29263;48.172;11.484;2023-02-21T13:42:59;1.45;;;0.40;;
43664;SDS011;29263;48.172;11.484;2023-02-21T13:45:31;1.45;;;0.60;;
43664;SDS011;29263;48.172;11.484;2023-02-21T13:52:13;3.95;;;0.70;;
43664;SDS011;29263;48.172;11.484;2023-02-21T13:57:42;1.77;;;0.47;;
43664;SDS011;29263;48.172;11.484;2023-02-21T14:00:56;3.13;;;0.50;;
43664;SDS011;29263;48.172;11.484;2023-02-21T14:03:40;1.35;;;0.52;;
43664;SDS011;29263;48.172;11.484;2023-02-21T14:08:43;0.43;;;0.28;;
43664;SDS011;29263;48.172;11.484;2023-02-21T14:11:21;0.95;;;0.52;;
43664;SDS011;29263;48.172;11.484;2023-02-21T14:13:56;0.43;;;0.40;;
43664;SDS011;29263;48.172;11.484;2023-02-21T14:19:05;2.83;;;0.70;;
43664;SDS011;29263;48.172;11.484;2023-02-21T14:21:48;1.88;;;0.50;;
43664;SDS011;29263;48.172;11.484;2023-02-21T14:25:04;0.80;;;0.30;;
43664;SDS011;29263;48.172;11.484;2023-02-21T14:27:32;2.30;;;0.55;;
43664;SDS011;29263;48.172;11.484;2023-02-21T14:32:27;1.13;;;0.40;;
43664;SDS011;29263;48.172;11.484;2023-02-21T14:34:59;0.93;;;0.32;;
43664;SDS011;29263;48.172;11.484;2023-02-21T14:37:35;1.60;;;0.57;;
43664;SDS011;29263;48.172;11.484;2023-02-21T15:02:41;1.35;;;0.50;;
43664;SDS011;29263;48.172;11.484;2023-02-21T15:05:26;0.75;;;0.40;;
43664;SDS011;29263;48.172;11.484;2023-02-21T15:08:01;1.60;;;0.30;;
43664;SDS011;29263;48.172;11.484;2023-02-21T15:10:40;0.52;;;0.20;;
43664;SDS011;29263;48.172;11.484;2023-02-21T15:18:28;1.38;;;0.50;;
43664;SDS011;29263;48.172;11.484;2023-02-21T15:23:41;1.77;;;0.40;;
43664;SDS011;29263;48.172;11.484;2023-02-21T15:26:27;0.73;;;0.32;;
43664;SDS011;29263;48.172;11.484;2023-02-21T15:31:54;0.50;;;0.30;;
43664;SDS011;29263;48.172;11.484;2023-02-21T15:37:01;1.50;;;0.52;;
43664;SDS011;29263;48.172;11.484;2023-02-21T15:39:55;0.98;;;0.30;;
43664;SDS011;29263;48.172;11.484;2023-02-21T15:42:25;0.50;;;0.30;;
43664;SDS011;29263;48.172;11.484;2023-02-21T15:44:59;1.95;;;0.40;;
43664;SDS011;29263;48.172;11.484;2023-02-21T15:47:29;5.03;;;2.22;;
43664;SDS011;29263;48.172;11.484;2023-02-21T15:50:04;2.83;;;1.52;;
43664;SDS011;29263;48.172;11.484;2023-02-21T15:52:40;3.85;;;1.30;;
43664;SDS011;29263;48.172;11.484;2023-02-21T15:57:58;1.80;;;1.33;;
43664;SDS011;29263;48.172;11.484;2023-02-21T16:00:30;1.42;;;1.00;;
43664;SDS011;29263;48.172;11.484;2023-02-21T16:13:11;1.67;;;1.25;;
43664;SDS011;29263;48.172;11.484;2023-02-21T16:15:46;4.63;;;1.42;;
43664;SDS011;29263;48.172;11.484;2023-02-21T16:18:16;2.30;;;1.20;;
43664;SDS011;29263;48.172;11.484;2023-02-21T16:23:22;6.05;;;1.23;;
43664;SDS011;29263;48.172;11.484;2023-02-21T16:28:26;4.45;;;1.65;;
43664;SDS011;29263;48.172;11.484;2023-02-21T16:30:56;2.42;;;1.00;;
43664;SDS011;29263;48.172;11.484;2023-02-21T16:33:24;2.90;;;1.05;;
43664;SDS011;29263;48.172;11.484;2023-02-21T16:35:51;3.28;;;0.80;;
43664;SDS011;29263;48.172;11.484;2023-02-21T16:38:18;0.73;;;0.57;;
43664;SDS011;29263;48.172;11.484;2023-02-21T16:40:45;3.78;;;0.75;;
43664;SDS011;29263;48.172;11.484;2023-02-21T16:43:21;1.88;;;0.70;;
43664;SDS011;29263;48.172;11.484;2023-02-21T16:45:54;0.90;;;0.60;;
43664;SDS011;29263;48.172;11.484;2023-02-21T16:48:25;0.93;;;0.57;;
43664;SDS011;29263;48.172;11.484;2023-02-21T16:50:56;4.22;;;0.60;;
43664;SDS011;29263;48.172;11.484;2023-02-21T16:53:24;0.82;;;0.45;;
43664;SDS011;29263;48.172;11.484;2023-02-21T16:55:50;3.83;;;0.93;;
43664;SDS011;29263;48.172;11.484;2023-02-21T17:00:54;0.98;;;0.60;;
43664;SDS011;29263;48.172;11.484;2023-02-21T17:03:21;2.05;;;0.80;;
43664;SDS011;29263;48.172;11.484;2023-02-21T17:05:49;1.05;;;0.60;;
43664;SDS011;29263;48.172;11.484;2023-02-21T17:08:16;2.15;;;0.65;;
43664;SDS011;29263;48.172;11.484;2023-02-21T17:10:42;0.80;;;0.50;;
43664;SDS011;29263;48.172;11.484;2023-02-21T17:13:08;1.45;;;0.40;;
43664;SDS011;29263;48.172;11.484;2023-02-21T17:15:34;2.90;;;0.70;;
43664;SDS011;29263;48.172;11.484;2023-02-21T17:17:59;1.88;;;0.55;;
43664;SDS011;29263;48.172;11.484;2023-02-21T17:20:26;0.60;;;0.52;;
43664;SDS011;29263;48.172;11.484;2023-02-21T17:22:52;1.02;;;0.65;;
43664;SDS011;29263;48.172;11.484;2023-02-21T17:25:19;1.40;;;0.80;;
43664;SDS011;29263;48.172;11.484;2023-02-21T17:27:45;1.47;;;0.70;;
43664;SDS011;29263;48.172;11.484;2023-02-21T17:30:15;1.00;;;0.77;;
43664;SDS011;29263;48.172;11.484;2023-02-21T17:32:42;2.87;;;0.73;;
43664;SDS011;29263;48.172;11.484;2023-02-21T17:35:09;2.10;;;0.60;;
43664;SDS011;29263;48.172;11.484;2023-02-21T17:37:35;1.17;;;0.80;;
43664;SDS011;29263;48.172;11.484;2023-02-21T17:40:00;1.97;;;0.90;;
43664;SDS011;29263;48.172;11.484;2023-02-21T17:42:26;2.00;;;0.80;;
43664;SDS011;29263;48.172;11.484;2023-02-21T17:44:52;3.27;;;0.80;;
43664;SDS011;29263;48.172;11.484;2023-02-21T17:47:18;1.70;;;0.93;;
43664;SDS011;29263;48.172;11.484;2023-02-21T17:49:46;2.83;;;1.20;;
43664;SDS011;29263;48.172;11.484;2023-02-21T17:52:13;0.97;;;0.83;;
43664;SDS011;29263;48.172;11.484;2023-02-21T17:54:39;9.83;;;1.27;;
43664;SDS011;29263;48.172;11.484;2023-02-21T17:57:05;1.47;;;0.87;;
43664;SDS011;29263;48.172;11.484;2023-02-21T17:59:33;3.37;;;1.30;;
43664;SDS011;29263;48.172;11.484;2023-02-21T18:01:59;9.67;;;4.03;;
43664;SDS011;29263;48.172;11.484;2023-02-21T18:04:25;10.77;;;4.67;;
43664;SDS011;29263;48.172;11.484;2023-02-21T18:06:50;12.70;;;6.27;;
43664;SDS011;29263;48.172;11.484;2023-02-21T18:09:16;10.27;;;3.87;;
43664;SDS011;29263;48.172;11.484;2023-02-21T18:11:49;6.83;;;3.07;;
43664;SDS011;29263;48.172;11.484;2023-02-21T18:14:16;11.20;;;2.90;;
43664;SDS011;29263;48.172;11.484;2023-02-21T18:16:45;5.70;;;1.90;;
43664;SDS011;29263;48.172;11.484;2023-02-21T18:19:11;5.97;;;3.27;;
43664;SDS011;29263;48.172;11.484;2023-02-21T18:21:36;7.97;;;2.77;;